createdAt,value
2022-10-02T00:00:18.439Z,99.90
2022-10-02T00:03:21.347Z,99.90
2022-10-02T00:05:58.565Z,99.90
2022-10-02T00:08:33.586Z,99.90
2022-10-02T00:11:14.861Z,99.90
2022-10-02T00:13:49.386Z,99.90
2022-10-02T00:16:38.165Z,99.90
2022-10-02T00:19:06.254Z,99.90
2022-10-02T00:21:43.594Z,99.90
2022-10-02T00:24:18.963Z,99.90
2022-10-02T00:27:02.217Z,99.90
2022-10-02T00:29:55.131Z,99.90
2022-10-02T00:32:33.619Z,99.90
2022-10-02T00:35:33.650Z,99.90
2022-10-02T00:38:12.320Z,99.90
2022-10-02T00:41:03.533Z,99.90
2022-10-02T00:44:07.516Z,99.90
2022-10-02T00:46:53.520Z,99.90
2022-10-02T00:49:41.672Z,99.90
2022-10-02T00:52:15.024Z,99.90
2022-10-02T00:55:23.879Z,99.90
2022-10-02T00:58:02.999Z,99.90
2022-10-02T01:00:30.433Z,99.90
2022-10-02T01:03:16.355Z,99.90
2022-10-02T01:05:43.709Z,99.90
2022-10-02T01:08:11.045Z,99.90
2022-10-02T01:10:39.568Z,99.90
2022-10-02T01:13:07.994Z,99.90
2022-10-02T01:15:40.530Z,99.90
2022-10-02T01:18:09.919Z,99.90
2022-10-02T01:20:50.310Z,99.90
2022-10-02T01:23:47.404Z,99.90
2022-10-02T01:26:14.860Z,99.90
2022-10-02T01:28:42.194Z,99.90
2022-10-02T01:31:13.493Z,99.90
2022-10-02T01:33:42.000Z,99.90
2022-10-02T01:36:11.637Z,99.90
2022-10-02T01:38:40.713Z,99.90
2022-10-02T01:41:11.457Z,99.90
2022-10-02T01:43:42.299Z,99.90
2022-10-02T01:46:32.183Z,99.90
2022-10-02T01:49:20.340Z,99.90
2022-10-02T01:51:59.930Z,99.90
2022-10-02T01:54:42.138Z,99.90
2022-10-02T01:57:36.508Z,99.90
2022-10-02T02:00:20.416Z,99.90
2022-10-02T02:02:57.095Z,99.90
2022-10-02T02:05:29.938Z,99.90
2022-10-02T02:08:09.066Z,99.90
2022-10-02T02:10:45.642Z,99.90
2022-10-02T02:13:22.290Z,99.90
2022-10-02T02:16:25.616Z,99.90
2022-10-02T02:19:06.169Z,99.90
2022-10-02T02:22:13.892Z,99.90
2022-10-02T02:24:44.745Z,99.90
2022-10-02T02:27:17.851Z,99.90
2022-10-02T02:29:48.319Z,99.90
2022-10-02T02:32:19.070Z,99.90
2022-10-02T02:34:52.889Z,99.90
2022-10-02T02:37:23.949Z,99.90
2022-10-02T02:40:06.711Z,99.90
2022-10-02T02:42:42.009Z,99.90
2022-10-02T02:45:18.631Z,99.90
2022-10-02T02:47:50.667Z,99.90
2022-10-02T02:50:24.274Z,99.90
2022-10-02T02:52:54.640Z,99.90
2022-10-02T02:55:33.762Z,99.90
2022-10-02T02:58:25.653Z,99.90
2022-10-02T03:00:53.229Z,99.90
2022-10-02T03:03:20.585Z,99.90
2022-10-02T03:05:50.894Z,99.90
2022-10-02T03:08:30.091Z,99.90
2022-10-02T03:11:17.540Z,99.90
2022-10-02T03:14:04.954Z,99.90
2022-10-02T03:16:41.120Z,99.90
2022-10-02T03:19:41.574Z,99.90
2022-10-02T03:22:28.173Z,99.90
2022-10-02T03:25:13.444Z,99.90
2022-10-02T03:28:10.613Z,99.90
2022-10-02T03:30:40.628Z,99.90
2022-10-02T03:33:09.514Z,99.90
2022-10-02T03:35:38.004Z,99.90
2022-10-02T03:38:11.101Z,99.90
2022-10-02T03:40:38.228Z,99.90
2022-10-02T03:43:05.890Z,99.90
2022-10-02T03:45:50.389Z,99.90
2022-10-02T03:48:18.959Z,99.90
2022-10-02T03:50:46.798Z,99.90
2022-10-02T03:53:19.889Z,99.90
2022-10-02T03:56:11.835Z,99.90
2022-10-02T03:58:45.120Z,99.90
2022-10-02T04:01:31.563Z,99.90
2022-10-02T04:04:04.612Z,99.90
2022-10-02T04:06:40.865Z,99.90
2022-10-02T04:09:19.332Z,99.90
2022-10-02T04:12:13.649Z,99.90
2022-10-02T04:14:45.538Z,99.90
2022-10-02T04:17:20.702Z,99.90
2022-10-02T04:19:53.110Z,99.90
2022-10-02T04:22:33.138Z,99.90
2022-10-02T04:25:10.607Z,99.90
2022-10-02T04:28:05.615Z,99.90
2022-10-02T04:30:33.101Z,99.90
2022-10-02T04:33:20.273Z,99.90
2022-10-02T04:36:22.455Z,99.90
2022-10-02T04:39:08.256Z,99.90
2022-10-02T04:41:44.678Z,99.90
2022-10-02T04:44:30.864Z,99.90
2022-10-02T04:47:22.932Z,99.90
2022-10-02T04:50:19.797Z,99.90
2022-10-02T04:53:25.281Z,99.90
2022-10-02T04:56:03.391Z,99.90
2022-10-02T04:58:38.684Z,99.90
2022-10-02T05:01:27.931Z,99.90
2022-10-02T05:04:24.676Z,99.90
2022-10-02T05:07:10.892Z,99.90
2022-10-02T05:10:03.701Z,99.90
2022-10-02T05:12:57.009Z,99.90
2022-10-02T05:15:45.174Z,99.90
2022-10-02T05:19:03.656Z,99.90
2022-10-02T05:21:30.827Z,99.90
2022-10-02T05:24:27.943Z,99.90
2022-10-02T05:27:16.193Z,99.90
2022-10-02T05:30:06.482Z,99.90
2022-10-02T05:32:51.412Z,99.90
2022-10-02T05:35:18.758Z,99.90
2022-10-02T05:38:03.731Z,99.90
2022-10-02T05:40:35.063Z,99.90
2022-10-02T05:43:06.273Z,99.90
2022-10-02T05:45:39.138Z,99.90
2022-10-02T05:48:28.010Z,99.90
2022-10-02T05:51:12.250Z,99.90
2022-10-02T05:54:22.711Z,99.90
2022-10-02T05:57:02.415Z,99.90
2022-10-02T05:59:44.805Z,99.90
2022-10-02T06:02:39.122Z,99.90
2022-10-02T06:05:24.111Z,99.90
2022-10-02T06:07:57.459Z,99.90
2022-10-02T06:10:30.978Z,99.90
2022-10-02T06:13:23.657Z,99.90
2022-10-02T06:16:18.077Z,99.90
2022-10-02T06:18:51.547Z,99.90
2022-10-02T06:21:28.441Z,99.90
2022-10-02T06:24:02.493Z,99.90
2022-10-02T06:26:40.181Z,99.90
2022-10-02T06:29:26.304Z,99.90
2022-10-02T06:32:15.357Z,99.90
2022-10-02T06:34:47.658Z,99.90
2022-10-02T06:37:42.975Z,99.90
2022-10-02T06:40:19.570Z,99.90
2022-10-02T06:43:01.779Z,99.90
2022-10-02T06:45:58.497Z,99.90
2022-10-02T06:48:42.838Z,99.90
2022-10-02T06:51:36.420Z,99.90
2022-10-02T06:54:41.091Z,99.90
2022-10-02T06:57:42.555Z,99.90
2022-10-02T07:00:14.656Z,99.90
2022-10-02T07:02:55.738Z,99.90
2022-10-02T07:06:05.092Z,99.90
2022-10-02T07:08:55.944Z,99.90
2022-10-02T07:11:30.256Z,99.90
2022-10-02T07:14:12.721Z,99.90
2022-10-02T07:16:51.205Z,99.90
2022-10-02T07:19:47.902Z,99.90
2022-10-02T07:22:43.406Z,99.90
2022-10-02T07:25:41.831Z,99.90
2022-10-02T07:28:39.754Z,99.90
2022-10-02T07:31:38.962Z,99.90
2022-10-02T07:34:24.849Z,99.90
2022-10-02T07:37:10.052Z,99.90
2022-10-02T07:39:53.265Z,99.90
2022-10-02T07:42:23.370Z,99.90
2022-10-02T07:45:17.652Z,99.90
2022-10-02T07:47:47.652Z,99.90
2022-10-02T07:50:36.291Z,99.90
2022-10-02T07:53:19.062Z,99.90
2022-10-02T07:55:53.288Z,99.90
2022-10-02T07:58:47.056Z,99.90
2022-10-02T08:01:30.546Z,99.90
2022-10-02T08:04:03.632Z,99.90
2022-10-02T08:06:33.008Z,99.90
2022-10-02T08:09:16.817Z,99.90
2022-10-02T08:11:56.144Z,99.90
2022-10-02T08:14:37.424Z,99.90
2022-10-02T08:17:28.081Z,99.90
2022-10-02T08:20:04.204Z,99.90
2022-10-02T08:22:39.690Z,99.90
2022-10-02T08:25:30.343Z,99.90
2022-10-02T08:28:22.515Z,99.90
2022-10-02T08:30:51.319Z,99.90
2022-10-02T08:33:20.895Z,99.90
2022-10-02T08:36:07.949Z,99.90
2022-10-02T08:38:54.887Z,99.90
2022-10-02T08:41:44.049Z,99.90
2022-10-02T08:44:11.377Z,99.90
2022-10-02T08:47:17.437Z,99.90
2022-10-02T08:50:01.539Z,99.90
2022-10-02T08:53:04.324Z,99.90
2022-10-02T08:56:04.431Z,99.90
2022-10-02T08:58:40.401Z,99.90
2022-10-02T09:01:13.736Z,99.90
2022-10-02T09:03:54.331Z,99.90
2022-10-02T09:06:53.132Z,99.90
2022-10-02T09:09:58.964Z,99.90
2022-10-02T09:12:47.545Z,99.90
2022-10-02T09:15:16.641Z,99.90
2022-10-02T09:18:02.772Z,99.90
2022-10-02T09:20:50.170Z,99.90
2022-10-02T09:24:05.386Z,99.90
2022-10-02T09:26:42.823Z,99.90
2022-10-02T09:29:39.421Z,99.90
2022-10-02T09:32:46.339Z,99.90
2022-10-02T09:35:38.526Z,99.90
2022-10-02T09:38:14.776Z,99.90
2022-10-02T09:40:54.411Z,99.90
2022-10-02T09:43:58.792Z,99.90
2022-10-02T09:46:59.991Z,99.90
2022-10-02T09:49:45.951Z,99.90
2022-10-02T09:52:27.602Z,99.90
2022-10-02T09:55:26.312Z,99.90
2022-10-02T09:58:05.507Z,99.90
2022-10-02T10:00:44.514Z,99.90
2022-10-02T10:03:36.867Z,99.90
2022-10-02T10:06:41.829Z,99.90
2022-10-02T10:09:47.557Z,99.90
2022-10-02T10:12:24.995Z,99.90
2022-10-02T10:15:20.026Z,99.90
2022-10-02T10:17:51.825Z,99.90
2022-10-02T10:20:37.203Z,99.90
2022-10-02T10:23:27.034Z,99.90
2022-10-02T10:26:23.262Z,99.90
2022-10-02T10:29:07.730Z,99.90
2022-10-02T10:31:48.529Z,99.90
2022-10-02T10:34:54.979Z,99.90
2022-10-02T10:37:59.472Z,99.90
2022-10-02T10:40:46.891Z,99.90
2022-10-02T10:43:36.553Z,99.90
2022-10-02T10:46:38.229Z,99.90
2022-10-02T10:50:02.464Z,99.90
2022-10-02T10:52:51.626Z,99.90
2022-10-02T10:55:40.168Z,99.90
2022-10-02T10:58:26.483Z,99.90
2022-10-02T11:00:54.004Z,99.90
2022-10-02T11:03:58.513Z,99.90
2022-10-02T11:06:46.322Z,99.90
2022-10-02T11:09:31.285Z,99.90
2022-10-02T11:12:21.678Z,99.90
2022-10-02T11:15:23.800Z,99.90
2022-10-02T11:17:56.977Z,99.90
2022-10-02T11:20:41.790Z,99.90
2022-10-02T11:23:21.230Z,99.90
2022-10-02T11:26:22.195Z,99.90
2022-10-02T11:29:10.824Z,99.90
2022-10-02T11:31:47.090Z,99.90
2022-10-02T11:34:38.206Z,99.90
2022-10-02T11:37:38.847Z,99.90
2022-10-02T11:40:26.980Z,99.90
2022-10-02T11:43:17.383Z,99.90
2022-10-02T11:45:55.272Z,99.90
2022-10-02T11:48:46.766Z,99.90
2022-10-02T11:51:22.898Z,99.90
2022-10-02T11:54:04.930Z,99.90
2022-10-02T11:56:35.692Z,99.90
2022-10-02T11:59:41.775Z,99.90
2022-10-02T12:03:01.857Z,99.90
2022-10-02T12:05:37.685Z,99.90
2022-10-02T12:08:21.649Z,99.90
2022-10-02T12:11:03.263Z,99.90
2022-10-02T12:14:07.068Z,99.90
2022-10-02T12:16:55.934Z,99.90
2022-10-02T12:20:08.011Z,99.90
2022-10-02T12:23:39.851Z,99.90
2022-10-02T12:26:45.187Z,99.90
2022-10-02T12:29:52.805Z,99.90
2022-10-02T12:32:57.192Z,99.90
2022-10-02T12:35:27.746Z,99.90
2022-10-02T12:38:20.566Z,99.90
2022-10-02T12:40:53.977Z,99.90
2022-10-02T12:43:53.252Z,99.90
2022-10-02T12:46:32.437Z,99.90
2022-10-02T12:49:10.072Z,99.90
2022-10-02T12:52:05.967Z,99.90
2022-10-02T12:55:15.244Z,99.90
2022-10-02T12:57:56.021Z,99.90
2022-10-02T13:00:51.477Z,99.90
2022-10-02T13:04:04.093Z,99.90
2022-10-02T13:06:42.516Z,99.90
2022-10-02T13:09:09.724Z,99.90
2022-10-02T13:11:56.050Z,99.90
2022-10-02T13:14:45.834Z,99.90
2022-10-02T13:17:22.116Z,99.90
2022-10-02T13:20:13.196Z,99.90
2022-10-02T13:22:52.229Z,99.90
2022-10-02T13:25:33.228Z,99.90
2022-10-02T13:28:08.477Z,99.90
2022-10-02T13:30:59.155Z,99.90
2022-10-02T13:34:00.623Z,99.90
2022-10-02T13:36:55.776Z,99.90
2022-10-02T13:39:32.235Z,99.10
2022-10-02T13:42:05.637Z,99.90
2022-10-02T13:44:48.784Z,99.10
2022-10-02T13:47:47.829Z,99.90
2022-10-02T13:50:30.203Z,99.30
2022-10-02T13:53:08.074Z,98.40
2022-10-02T13:55:48.306Z,98.70
2022-10-02T13:58:21.210Z,98.90
2022-10-02T14:00:59.804Z,99.90
2022-10-02T14:04:00.270Z,99.90
2022-10-02T14:06:59.541Z,99.90
2022-10-02T14:09:56.962Z,99.90
2022-10-02T14:12:55.401Z,99.90
2022-10-02T14:15:44.199Z,99.90
2022-10-02T14:18:26.440Z,99.90
2022-10-02T14:21:05.007Z,99.60
2022-10-02T14:23:32.349Z,99.30
2022-10-02T14:26:02.675Z,99.00
2022-10-02T14:28:34.305Z,99.00
2022-10-02T14:31:07.634Z,98.50
2022-10-02T14:33:59.456Z,98.90
2022-10-02T14:36:46.356Z,99.50
2022-10-02T14:39:28.143Z,99.90
2022-10-02T14:42:14.374Z,99.90
2022-10-02T14:45:18.248Z,99.90
2022-10-02T14:48:20.900Z,99.90
2022-10-02T14:51:14.331Z,99.90
2022-10-02T14:53:50.614Z,99.90
2022-10-02T14:56:44.193Z,99.90
2022-10-02T14:59:22.671Z,99.90
2022-10-02T15:02:20.629Z,99.90
2022-10-02T15:05:09.715Z,99.90
2022-10-02T15:07:39.152Z,99.90
2022-10-02T15:10:19.124Z,99.90
2022-10-02T15:13:10.064Z,99.90
2022-10-02T15:15:40.660Z,99.90
2022-10-02T15:18:21.204Z,99.90
2022-10-02T15:21:00.821Z,99.90
2022-10-02T15:23:34.534Z,99.90
2022-10-02T15:26:07.581Z,99.90
2022-10-02T15:28:47.834Z,99.90
2022-10-02T15:31:35.940Z,99.90
2022-10-02T15:34:41.595Z,99.90
2022-10-02T15:37:14.625Z,99.90
2022-10-02T15:39:41.827Z,99.90
2022-10-02T15:42:10.874Z,99.90
2022-10-02T15:45:30.892Z,99.90
2022-10-02T15:48:28.214Z,99.90
2022-10-02T15:51:05.547Z,99.90
2022-10-02T15:54:02.107Z,99.90
2022-10-02T15:56:50.171Z,99.90
2022-10-02T15:59:32.588Z,99.90
2022-10-02T16:02:24.783Z,99.90
2022-10-02T16:04:59.663Z,99.90
2022-10-02T16:07:52.119Z,99.90
2022-10-02T16:10:41.905Z,99.90
2022-10-02T16:13:27.812Z,99.90
2022-10-02T16:16:14.947Z,99.90
2022-10-02T16:18:50.692Z,99.90
2022-10-02T16:22:07.539Z,99.90
2022-10-02T16:25:02.244Z,99.90
2022-10-02T16:27:53.038Z,99.90
2022-10-02T16:30:22.704Z,99.90
2022-10-02T16:33:05.178Z,99.90
2022-10-02T16:35:54.534Z,99.90
2022-10-02T16:38:25.023Z,99.90
2022-10-02T16:40:56.908Z,99.90
2022-10-02T16:43:59.170Z,99.90
2022-10-02T16:46:49.123Z,99.90
2022-10-02T16:49:32.777Z,99.90
2022-10-02T16:52:27.260Z,99.90
2022-10-02T16:55:13.219Z,99.90
2022-10-02T16:57:43.602Z,99.90
2022-10-02T17:00:15.658Z,99.90
2022-10-02T17:02:50.348Z,99.90
2022-10-02T17:05:23.397Z,99.90
2022-10-02T17:08:09.129Z,99.90
2022-10-02T17:11:13.663Z,99.90
2022-10-02T17:14:09.910Z,99.90
2022-10-02T17:17:03.438Z,99.90
2022-10-02T17:19:48.869Z,99.90
2022-10-02T17:22:43.211Z,99.90
2022-10-02T17:25:27.026Z,99.90
2022-10-02T17:27:56.737Z,99.90
2022-10-02T17:30:27.344Z,99.90
2022-10-02T17:33:19.037Z,99.90
2022-10-02T17:35:57.309Z,99.90
2022-10-02T17:38:39.560Z,99.90
2022-10-02T17:41:37.999Z,99.90
2022-10-02T17:44:26.752Z,99.90
2022-10-02T17:47:32.216Z,99.90
2022-10-02T17:50:06.862Z,99.90
2022-10-02T17:53:07.239Z,99.90
2022-10-02T17:56:30.652Z,99.90
2022-10-02T17:59:24.167Z,99.90
2022-10-02T18:02:23.679Z,99.90
2022-10-02T18:05:25.031Z,99.90
2022-10-02T18:08:01.315Z,99.90
2022-10-02T18:10:50.413Z,99.90
2022-10-02T18:13:42.609Z,99.90
2022-10-02T18:16:37.091Z,99.90
2022-10-02T18:19:22.835Z,99.90
2022-10-02T18:21:53.863Z,99.90
2022-10-02T18:24:52.058Z,99.90
2022-10-02T18:27:37.090Z,99.90
2022-10-02T18:30:23.517Z,99.90
2022-10-02T18:32:51.685Z,99.90
2022-10-02T18:35:47.230Z,99.90
2022-10-02T18:38:43.338Z,99.90
2022-10-02T18:41:13.675Z,99.90
2022-10-02T18:43:49.635Z,99.90
2022-10-02T18:46:40.287Z,99.90
2022-10-02T18:49:37.542Z,99.90
2022-10-02T18:52:16.708Z,99.90
2022-10-02T18:55:26.421Z,99.90
2022-10-02T18:58:09.730Z,99.90
2022-10-02T19:01:05.322Z,99.90
2022-10-02T19:03:44.588Z,99.90
2022-10-02T19:06:11.881Z,99.90
2022-10-02T19:09:01.901Z,99.90
2022-10-02T19:11:31.651Z,99.90
2022-10-02T19:14:02.308Z,99.90
2022-10-02T19:16:31.190Z,99.90
2022-10-02T19:19:21.483Z,99.90
2022-10-02T19:21:49.169Z,99.90
2022-10-02T19:24:23.325Z,99.90
2022-10-02T19:26:57.172Z,99.90
2022-10-02T19:29:36.750Z,99.90
2022-10-02T19:32:12.835Z,99.90
2022-10-02T19:34:42.250Z,99.90
2022-10-02T19:37:15.280Z,99.90
2022-10-02T19:39:51.259Z,99.90
2022-10-02T19:42:25.449Z,99.90
2022-10-02T19:44:57.850Z,99.90
2022-10-02T19:47:31.851Z,99.90
2022-10-02T19:50:01.712Z,99.90
2022-10-02T19:52:43.699Z,99.90
2022-10-02T19:55:40.844Z,99.90
2022-10-02T19:58:38.469Z,99.90
2022-10-02T20:01:14.642Z,99.90
2022-10-02T20:03:43.841Z,99.90
2022-10-02T20:06:16.658Z,99.90
2022-10-02T20:08:47.334Z,99.90
2022-10-02T20:11:14.654Z,99.90
2022-10-02T20:13:48.376Z,99.90
2022-10-02T20:16:39.018Z,99.90
2022-10-02T20:19:08.631Z,99.90
2022-10-02T20:21:42.524Z,99.90
2022-10-02T20:24:23.323Z,99.90
2022-10-02T20:26:56.062Z,99.90
2022-10-02T20:29:27.702Z,99.90
2022-10-02T20:32:02.991Z,99.90
2022-10-02T20:34:47.739Z,99.90
2022-10-02T20:37:21.452Z,99.90
2022-10-02T20:39:55.173Z,99.90
2022-10-02T20:42:35.738Z,99.90
2022-10-02T20:45:02.940Z,99.90
2022-10-02T20:47:36.873Z,99.90
2022-10-02T20:50:25.638Z,99.90
2022-10-02T20:53:08.036Z,99.90
2022-10-02T20:55:49.719Z,99.90
2022-10-02T20:58:42.737Z,99.90
2022-10-02T21:01:50.239Z,99.90
2022-10-02T21:04:38.237Z,99.90
2022-10-02T21:07:39.301Z,99.90
2022-10-02T21:10:30.559Z,99.90
2022-10-02T21:13:24.333Z,99.90
2022-10-02T21:16:21.190Z,99.90
2022-10-02T21:18:54.465Z,99.90
2022-10-02T21:21:48.447Z,99.90
2022-10-02T21:24:38.962Z,99.90
2022-10-02T21:27:20.958Z,99.90
2022-10-02T21:30:02.353Z,99.90
2022-10-02T21:32:57.104Z,99.90
2022-10-02T21:35:46.261Z,99.90
2022-10-02T21:38:44.375Z,99.90
2022-10-02T21:41:26.923Z,99.90
2022-10-02T21:44:10.516Z,99.90
2022-10-02T21:46:56.189Z,99.90
2022-10-02T21:49:42.625Z,99.90
2022-10-02T21:52:28.532Z,99.90
2022-10-02T21:55:33.667Z,99.90
2022-10-02T21:58:31.485Z,99.90
2022-10-02T22:01:01.848Z,99.90
2022-10-02T22:03:50.594Z,99.90
2022-10-02T22:06:36.471Z,99.90
2022-10-02T22:09:10.047Z,99.90
2022-10-02T22:11:52.984Z,99.90
2022-10-02T22:14:27.807Z,99.90
2022-10-02T22:17:06.134Z,99.90
2022-10-02T22:19:51.842Z,99.90
2022-10-02T22:22:46.943Z,99.90
2022-10-02T22:25:26.339Z,99.90
2022-10-02T22:28:16.660Z,99.90
2022-10-02T22:30:55.184Z,99.90
2022-10-02T22:33:54.201Z,99.90
2022-10-02T22:36:42.878Z,99.90
2022-10-02T22:39:24.992Z,99.90
2022-10-02T22:42:21.504Z,99.90
2022-10-02T22:45:00.967Z,99.90
2022-10-02T22:47:46.880Z,99.90
2022-10-02T22:50:39.775Z,99.90
2022-10-02T22:53:30.174Z,99.90
2022-10-02T22:55:58.402Z,99.90
2022-10-02T22:59:00.986Z,99.90
2022-10-02T23:01:44.454Z,99.90
2022-10-02T23:04:24.586Z,99.90
2022-10-02T23:07:02.549Z,99.90
2022-10-02T23:09:46.534Z,99.90
2022-10-02T23:12:26.658Z,99.90
2022-10-02T23:15:20.335Z,99.90
2022-10-02T23:17:58.159Z,99.90
2022-10-02T23:20:42.943Z,99.90
2022-10-02T23:23:17.777Z,99.90
2022-10-02T23:26:08.718Z,99.90
2022-10-02T23:28:55.515Z,99.90
2022-10-02T23:31:30.485Z,99.90
2022-10-02T23:34:31.641Z,99.90
2022-10-02T23:37:13.738Z,99.90
2022-10-02T23:39:54.106Z,99.90
2022-10-02T23:42:34.654Z,99.90
2022-10-02T23:45:17.354Z,99.90
2022-10-02T23:48:11.878Z,99.90
2022-10-02T23:50:51.401Z,99.90
2022-10-02T23:53:33.853Z,99.90
2022-10-02T23:56:22.616Z,99.90
2022-10-02T23:59:22.515Z,99.90
